createdAt,value
2022-10-24T00:00:35.354Z,101428.58
2022-10-24T00:03:28.234Z,101423.27
2022-10-24T00:06:00.440Z,101408.66
2022-10-24T00:08:32.676Z,101418.16
2022-10-24T00:11:09.655Z,101416.09
2022-10-24T00:13:42.767Z,101413.73
2022-10-24T00:16:15.916Z,101414.20
2022-10-24T00:18:48.607Z,101411.03
2022-10-24T00:21:21.411Z,101399.27
2022-10-24T00:23:53.552Z,101407.99
2022-10-24T00:26:25.787Z,101412.02
2022-10-24T00:28:58.113Z,101418.64
2022-10-24T00:31:30.745Z,101418.77
2022-10-24T00:34:03.436Z,101419.34
2022-10-24T00:36:35.919Z,101418.63
2022-10-24T00:39:08.182Z,101414.23
2022-10-24T00:41:43.988Z,101414.13
2022-10-24T00:44:19.948Z,101422.88
2022-10-24T00:46:56.420Z,101423.84
2022-10-24T00:49:33.549Z,101422.55
2022-10-24T00:52:09.341Z,101428.46
2022-10-24T00:54:40.845Z,101429.92
2022-10-24T00:57:20.600Z,101432.04
2022-10-24T00:59:56.638Z,101439.84
2022-10-24T01:02:29.215Z,101437.66
2022-10-24T01:05:01.647Z,101432.11
2022-10-24T01:07:48.008Z,101424.42
2022-10-24T01:13:21.032Z,101435.13
2022-10-24T01:15:57.689Z,101437.19
2022-10-24T01:18:34.077Z,101440.46
2022-10-24T01:21:25.138Z,101436.61
2022-10-24T01:24:23.519Z,101431.30
2022-10-24T01:27:27.716Z,101431.80
2022-10-24T01:30:09.041Z,101420.50
2022-10-24T01:32:47.892Z,101418.93
2022-10-24T01:35:27.904Z,101424.54
2022-10-24T01:38:10.649Z,101416.52
2022-10-24T01:40:51.855Z,101410.27
2022-10-24T01:43:28.331Z,101400.62
2022-10-24T01:46:06.082Z,101396.05
2022-10-24T01:48:42.566Z,101388.12
2022-10-24T01:51:17.194Z,101393.96
2022-10-24T01:53:51.650Z,101394.64
2022-10-24T01:56:25.427Z,101392.67
2022-10-24T01:59:07.698Z,101396.04
2022-10-24T02:01:40.766Z,101391.58
2022-10-24T02:04:14.631Z,101381.05
2022-10-24T02:06:48.933Z,101387.16
2022-10-24T02:09:22.550Z,101377.30
2022-10-24T02:11:58.608Z,101392.37
2022-10-24T02:14:34.896Z,101398.19
2022-10-24T02:17:07.651Z,101383.87
2022-10-24T02:19:40.397Z,101392.11
2022-10-24T02:22:18.603Z,101390.34
2022-10-24T02:24:55.217Z,101390.45
2022-10-24T02:27:31.377Z,101401.86
2022-10-24T02:30:06.916Z,101402.71
2022-10-24T02:32:41.833Z,101406.77
2022-10-24T02:35:16.979Z,101395.09
2022-10-24T02:37:53.468Z,101391.71
2022-10-24T02:40:26.531Z,101382.02
2022-10-24T02:42:59.848Z,101379.65
2022-10-24T02:45:33.643Z,101371.01
2022-10-24T02:48:11.356Z,101365.40
2022-10-24T02:50:45.490Z,101359.36
2022-10-24T02:53:20.599Z,101375.73
2022-10-24T02:55:52.770Z,101376.13
2022-10-24T02:58:25.181Z,101383.13
2022-10-24T03:00:57.451Z,101382.05
2022-10-24T03:03:29.701Z,101386.86
2022-10-24T03:06:01.854Z,101379.70
2022-10-24T03:08:34.067Z,101376.82
2022-10-24T03:11:06.701Z,101377.91
2022-10-24T03:13:38.889Z,101373.28
2022-10-24T03:16:13.922Z,101366.23
2022-10-24T03:18:46.587Z,101368.30
2022-10-24T03:21:18.660Z,101367.58
2022-10-24T03:23:51.102Z,101377.56
2022-10-24T03:26:23.271Z,101382.08
2022-10-24T03:28:55.406Z,101388.69
2022-10-24T03:31:27.946Z,101393.67
2022-10-24T03:34:00.484Z,101397.13
2022-10-24T03:36:32.677Z,101391.33
2022-10-24T03:39:04.936Z,101398.25
2022-10-24T03:41:37.092Z,101393.91
2022-10-24T03:44:09.372Z,101382.97
2022-10-24T03:46:41.569Z,101397.83
2022-10-24T03:49:13.816Z,101394.02
2022-10-24T03:51:45.944Z,101389.42
2022-10-24T03:54:18.539Z,101382.02
2022-10-24T03:56:50.643Z,101395.77
2022-10-24T03:59:22.834Z,101387.03
2022-10-24T04:01:55.324Z,101383.71
2022-10-24T04:04:27.518Z,101386.59
2022-10-24T04:07:00.445Z,101383.63
2022-10-24T04:09:32.605Z,101383.70
2022-10-24T04:12:04.940Z,101386.85
2022-10-24T04:14:37.219Z,101383.59
2022-10-24T04:17:09.677Z,101385.62
2022-10-24T04:19:41.996Z,101378.23
2022-10-24T04:22:14.219Z,101378.08
2022-10-24T04:24:46.723Z,101373.92
2022-10-24T04:27:19.626Z,101374.65
2022-10-24T04:29:51.957Z,101384.95
2022-10-24T04:32:24.169Z,101386.16
2022-10-24T04:34:56.293Z,101385.33
2022-10-24T04:37:28.568Z,101383.16
2022-10-24T04:40:00.697Z,101381.55
2022-10-24T04:42:33.199Z,101380.65
2022-10-24T04:45:05.671Z,101384.36
2022-10-24T04:47:38.123Z,101373.60
2022-10-24T04:50:11.676Z,101383.36
2022-10-24T04:52:44.012Z,101385.02
2022-10-24T04:55:16.412Z,101384.29
2022-10-24T04:57:48.613Z,101378.21
2022-10-24T05:00:21.527Z,101387.16
2022-10-24T05:02:56.705Z,101383.65
2022-10-24T05:05:31.338Z,101386.02
2022-10-24T05:08:03.423Z,101389.08
2022-10-24T05:10:35.577Z,101392.26
2022-10-24T05:13:07.717Z,101395.09
2022-10-24T05:15:40.141Z,101395.25
2022-10-24T05:18:12.983Z,101399.84
2022-10-24T05:20:45.247Z,101402.16
2022-10-24T05:23:17.527Z,101400.05
2022-10-24T05:25:49.921Z,101408.67
2022-10-24T05:28:22.194Z,101415.69
2022-10-24T05:30:54.546Z,101418.45
2022-10-24T05:33:26.827Z,101420.20
2022-10-24T05:35:59.033Z,101410.06
2022-10-24T05:38:31.196Z,101415.27
2022-10-24T05:41:03.362Z,101408.56
2022-10-24T05:43:35.538Z,101410.89
2022-10-24T05:46:10.232Z,101415.23
2022-10-24T05:48:42.446Z,101415.59
2022-10-24T05:51:14.576Z,101419.23
2022-10-24T05:53:46.805Z,101423.19
2022-10-24T05:56:18.967Z,101418.68
2022-10-24T05:58:51.124Z,101429.09
2022-10-24T06:01:23.271Z,101430.98
2022-10-24T06:03:55.565Z,101431.61
2022-10-24T06:06:27.985Z,101436.40
2022-10-24T06:09:00.093Z,101432.11
2022-10-24T06:11:32.433Z,101433.42
2022-10-24T06:14:08.769Z,101435.22
2022-10-24T06:16:51.264Z,101436.42
2022-10-24T06:19:23.368Z,101440.52
2022-10-24T06:21:55.651Z,101433.82
2022-10-24T06:24:27.952Z,101435.63
2022-10-24T06:27:00.223Z,101424.64
2022-10-24T06:29:32.731Z,101429.92
2022-10-24T06:32:05.604Z,101426.88
2022-10-24T06:34:37.905Z,101427.56
2022-10-24T06:37:10.168Z,101426.17
2022-10-24T06:39:42.312Z,101425.52
2022-10-24T06:42:14.491Z,101427.06
2022-10-24T06:44:46.738Z,101423.81
2022-10-24T06:47:19.137Z,101424.48
2022-10-24T06:49:51.267Z,101418.50
2022-10-24T06:52:23.480Z,101429.36
2022-10-24T06:54:56.052Z,101427.98
2022-10-24T06:57:28.171Z,101429.81
2022-10-24T07:00:00.295Z,101435.39
2022-10-24T07:02:32.660Z,101434.11
2022-10-24T07:05:05.120Z,101438.52
2022-10-24T07:07:37.263Z,101438.48
2022-10-24T07:10:13.226Z,101440.08
2022-10-24T07:12:46.015Z,101442.36
2022-10-24T07:15:18.560Z,101438.27
2022-10-24T07:17:50.688Z,101433.27
2022-10-24T07:20:22.902Z,101432.83
2022-10-24T07:22:55.105Z,101425.15
2022-10-24T07:25:27.266Z,101431.11
2022-10-24T07:27:59.369Z,101423.69
2022-10-24T07:30:31.582Z,101426.58
2022-10-24T07:33:03.777Z,101424.88
2022-10-24T07:35:36.273Z,101414.19
2022-10-24T07:38:08.381Z,101417.36
2022-10-24T07:40:40.556Z,101408.52
2022-10-24T07:43:13.238Z,101415.45
2022-10-24T07:45:49.103Z,101414.30
2022-10-24T07:48:24.380Z,101414.48
2022-10-24T07:50:56.512Z,101418.45
2022-10-24T07:53:28.800Z,101415.96
2022-10-24T07:56:01.398Z,101416.03
2022-10-24T07:58:33.588Z,101410.27
2022-10-24T08:01:08.600Z,101401.27
2022-10-24T08:03:40.848Z,101404.13
2022-10-24T08:06:15.666Z,101405.11
2022-10-24T08:08:48.385Z,101411.55
2022-10-24T08:11:23.588Z,101411.93
2022-10-24T08:13:57.289Z,101406.96
2022-10-24T08:16:30.169Z,101408.75
2022-10-24T08:19:02.459Z,101397.80
2022-10-24T08:21:36.385Z,101408.20
2022-10-24T08:24:09.400Z,101412.02
2022-10-24T08:26:41.598Z,101412.23
2022-10-24T08:29:15.132Z,101412.61
2022-10-24T08:31:47.261Z,101404.38
2022-10-24T08:34:19.863Z,101406.48
2022-10-24T08:36:52.420Z,101404.90
2022-10-24T08:39:24.528Z,101407.40
2022-10-24T08:42:00.509Z,101408.51
2022-10-24T08:44:35.734Z,101403.86
2022-10-24T08:47:14.850Z,101407.71
2022-10-24T08:49:51.398Z,101402.02
2022-10-24T08:52:29.861Z,101399.64
2022-10-24T08:55:07.276Z,101399.03
2022-10-24T08:57:44.779Z,101392.88
2022-10-24T09:00:22.513Z,101391.39
2022-10-24T09:03:03.330Z,101389.84
2022-10-24T09:05:42.496Z,101388.42
2022-10-24T09:08:25.799Z,101384.51
2022-10-24T09:11:01.365Z,101382.60
2022-10-24T09:13:35.276Z,101388.73
2022-10-24T09:16:08.165Z,101391.27
2022-10-24T09:18:43.308Z,101392.85
2022-10-24T09:21:18.241Z,101384.92
2022-10-24T09:23:52.050Z,101390.60
2022-10-24T09:26:30.145Z,101388.73
2022-10-24T09:29:02.415Z,101382.93
2022-10-24T09:31:34.652Z,101372.41
2022-10-24T09:34:06.845Z,101375.76
2022-10-24T09:36:40.783Z,101370.79
2022-10-24T09:39:30.031Z,101374.96
2022-10-24T09:42:03.332Z,101371.02
2022-10-24T09:44:38.552Z,101370.05
2022-10-24T09:47:25.996Z,101374.79
2022-10-24T09:49:58.569Z,101366.81
2022-10-24T09:52:33.017Z,101368.96
2022-10-24T09:55:17.774Z,101363.61
2022-10-24T09:57:54.040Z,101360.58
2022-10-24T10:00:29.769Z,101357.11
2022-10-24T10:03:05.455Z,101352.12
2022-10-24T10:05:49.582Z,101350.14
2022-10-24T10:08:25.111Z,101352.70
2022-10-24T10:11:07.525Z,101349.96
2022-10-24T10:13:50.588Z,101348.43
2022-10-24T10:16:28.045Z,101344.77
2022-10-24T10:19:07.964Z,101336.87
2022-10-24T10:21:58.068Z,101344.54
2022-10-24T10:24:40.818Z,101338.90
2022-10-24T10:27:32.345Z,101343.11
2022-10-24T10:30:20.905Z,101336.23
2022-10-24T10:33:07.133Z,101333.10
2022-10-24T10:35:47.491Z,101327.06
2022-10-24T10:38:38.011Z,101332.48
2022-10-24T10:41:19.697Z,101328.88
2022-10-24T10:44:03.021Z,101329.36
2022-10-24T10:46:45.553Z,101327.95
2022-10-24T10:49:25.592Z,101324.20
2022-10-24T10:52:03.895Z,101317.72
2022-10-24T10:55:01.411Z,101313.95
2022-10-24T10:57:41.821Z,101310.64
2022-10-24T11:00:18.224Z,101303.77
2022-10-24T11:03:03.901Z,101302.58
2022-10-24T11:05:54.263Z,101301.02
2022-10-24T11:08:49.439Z,101302.27
2022-10-24T11:11:26.231Z,101302.14
2022-10-24T11:14:03.544Z,101301.84
2022-10-24T11:16:37.145Z,101305.51
2022-10-24T11:19:27.200Z,101305.25
2022-10-24T11:22:01.859Z,101298.23
2022-10-24T11:24:40.249Z,101295.92
2022-10-24T11:27:17.669Z,101290.86
2022-10-24T11:29:56.588Z,101288.83
2022-10-24T11:32:33.856Z,101278.34
2022-10-24T11:35:16.009Z,101279.86
2022-10-24T11:37:51.939Z,101278.27
2022-10-24T11:43:16.137Z,101274.56
2022-10-24T11:45:53.605Z,101265.11
2022-10-24T11:48:31.717Z,101259.74
2022-10-24T11:51:10.029Z,101257.98
2022-10-24T11:53:54.800Z,101250.86
2022-10-24T11:56:34.247Z,101249.31
2022-10-24T11:59:10.672Z,101245.47
2022-10-24T12:02:03.676Z,101239.92
2022-10-24T12:04:57.460Z,101238.40
2022-10-24T12:08:08.495Z,101233.40
2022-10-24T12:11:14.097Z,101231.23
2022-10-24T12:16:52.692Z,101221.59
2022-10-24T12:19:26.489Z,101215.12
2022-10-24T12:22:02.045Z,101210.29
2022-10-24T12:24:34.675Z,101210.91
2022-10-24T12:27:20.925Z,101211.90
2022-10-24T12:30:15.867Z,101207.40
2022-10-24T12:32:51.213Z,101202.86
2022-10-24T12:35:47.144Z,101202.83
2022-10-24T12:38:42.646Z,101198.70
2022-10-24T12:41:46.565Z,101198.33
2022-10-24T12:44:41.287Z,101199.56
2022-10-24T12:47:35.940Z,101202.67
2022-10-24T12:50:42.471Z,101201.41
2022-10-24T12:53:31.884Z,101198.09
2022-10-24T12:59:04.763Z,101194.05
2022-10-24T13:01:38.354Z,101182.41
2022-10-24T13:04:47.275Z,101190.75
2022-10-24T13:07:51.844Z,101202.00
2022-10-24T13:10:35.789Z,101201.03
2022-10-24T13:13:30.476Z,101202.65
2022-10-24T13:16:08.706Z,101199.16
2022-10-24T13:18:54.161Z,101195.95
2022-10-24T13:21:32.277Z,101196.63
2022-10-24T13:24:30.819Z,101190.38
2022-10-24T13:27:27.196Z,101188.64
2022-10-24T13:30:20.113Z,101183.06
2022-10-24T13:32:52.317Z,101181.56
2022-10-24T13:35:27.552Z,101176.11
2022-10-24T13:38:04.747Z,101164.76
2022-10-24T13:40:43.156Z,101163.46
2022-10-24T13:43:19.892Z,101161.55
2022-10-24T13:46:04.287Z,101163.23
2022-10-24T13:48:41.309Z,101164.71
2022-10-24T13:51:22.949Z,101161.54
2022-10-24T13:53:57.634Z,101164.23
2022-10-24T13:56:33.128Z,101166.43
2022-10-24T13:59:07.772Z,101162.12
2022-10-24T14:01:41.745Z,101159.08
2022-10-24T14:04:13.884Z,101158.72
2022-10-24T14:06:47.223Z,101160.30
2022-10-24T14:09:19.492Z,101157.02
2022-10-24T14:11:52.240Z,101149.52
2022-10-24T14:14:30.724Z,101153.69
2022-10-24T14:17:24.003Z,101154.05
2022-10-24T14:19:59.713Z,101156.32
2022-10-24T14:22:37.117Z,101150.08
2022-10-24T14:25:24.195Z,101147.90
2022-10-24T14:27:59.528Z,101145.31
2022-10-24T14:30:35.109Z,101149.44
2022-10-24T14:33:22.400Z,101147.48
2022-10-24T14:35:57.922Z,101139.90
2022-10-24T14:38:31.688Z,101143.20
2022-10-24T14:41:09.565Z,101139.93
2022-10-24T14:43:45.014Z,101136.05
2022-10-24T14:46:38.895Z,101130.48
2022-10-24T14:49:33.990Z,101128.39
2022-10-24T14:52:13.325Z,101125.29
2022-10-24T14:54:53.595Z,101124.09
2022-10-24T14:57:26.918Z,101123.05
2022-10-24T15:00:02.822Z,101117.20
2022-10-24T15:02:41.969Z,101120.55
2022-10-24T15:05:34.190Z,101120.46
2022-10-24T15:08:26.920Z,101117.67
2022-10-24T15:11:15.353Z,101113.07
2022-10-24T15:14:05.628Z,101113.02
2022-10-24T15:16:42.264Z,101111.23
2022-10-24T15:19:19.472Z,101113.73
2022-10-24T15:21:52.153Z,101110.98
2022-10-24T15:24:27.204Z,101112.44
2022-10-24T15:27:14.247Z,101115.45
2022-10-24T15:29:46.652Z,101118.55
2022-10-24T15:32:18.813Z,101120.72
2022-10-24T15:34:54.256Z,101125.69
2022-10-24T15:37:28.718Z,101124.88
2022-10-24T15:40:06.233Z,101128.00
2022-10-24T15:42:38.520Z,101127.98
2022-10-24T15:45:16.377Z,101128.41
2022-10-24T15:47:48.543Z,101123.70
2022-10-24T15:53:02.688Z,101127.33
2022-10-24T15:55:35.040Z,101122.90
2022-10-24T15:58:11.542Z,101133.27
2022-10-24T16:00:43.891Z,101138.83
2022-10-24T16:03:23.837Z,101140.02
2022-10-24T16:05:58.380Z,101140.20
2022-10-24T16:08:30.549Z,101142.11
2022-10-24T16:11:06.184Z,101142.45
2022-10-24T16:13:42.291Z,101142.18
2022-10-24T16:16:14.481Z,101146.58
2022-10-24T16:18:49.968Z,101148.66
2022-10-24T16:21:23.876Z,101151.52
2022-10-24T16:23:56.060Z,101147.30
2022-10-24T16:26:28.400Z,101150.08
2022-10-24T16:29:00.723Z,101146.83
2022-10-24T16:31:33.429Z,101149.05
2022-10-24T16:34:07.497Z,101145.33
2022-10-24T16:36:41.078Z,101144.52
2022-10-24T16:39:14.632Z,101144.91
2022-10-24T16:41:46.912Z,101144.48
2022-10-24T16:44:19.560Z,101145.81
2022-10-24T16:46:53.431Z,101142.37
2022-10-24T16:49:25.883Z,101141.16
2022-10-24T16:52:00.277Z,101146.32
2022-10-24T16:54:32.664Z,101144.69
2022-10-24T16:57:04.884Z,101146.14
2022-10-24T16:59:37.225Z,101143.60
2022-10-24T17:02:10.282Z,101144.68
2022-10-24T17:04:44.751Z,101138.40
2022-10-24T17:07:18.513Z,101142.10
2022-10-24T17:09:52.070Z,101141.36
2022-10-24T17:12:24.201Z,101137.98
2022-10-24T17:14:56.565Z,101139.52
2022-10-24T17:17:28.950Z,101137.50
2022-10-24T17:20:01.136Z,101138.18
2022-10-24T17:25:18.847Z,101135.86
2022-10-24T17:27:52.285Z,101138.18
2022-10-24T17:30:26.886Z,101140.95
2022-10-24T17:33:00.592Z,101143.80
2022-10-24T17:35:33.712Z,101130.70
2022-10-24T17:38:13.422Z,101131.02
2022-10-24T17:40:47.964Z,101138.84
2022-10-24T17:43:24.262Z,101138.31
2022-10-24T17:45:58.451Z,101143.89
2022-10-24T17:48:31.080Z,101140.33
2022-10-24T17:51:03.211Z,101142.60
2022-10-24T17:53:35.360Z,101141.49
2022-10-24T17:56:08.387Z,101136.38
2022-10-24T17:58:40.539Z,101142.06
2022-10-24T18:01:15.367Z,101145.27
2022-10-24T18:03:47.578Z,101141.80
2022-10-24T18:06:19.956Z,101142.84
2022-10-24T18:08:55.911Z,101140.04
2022-10-24T18:11:28.054Z,101137.52
2022-10-24T18:14:00.191Z,101140.14
2022-10-24T18:16:32.392Z,101138.76
2022-10-24T18:19:04.929Z,101136.29
2022-10-24T18:21:37.199Z,101137.88
2022-10-24T18:24:10.613Z,101138.77
2022-10-24T18:26:42.785Z,101139.34
2022-10-24T18:29:14.941Z,101135.90
2022-10-24T18:31:47.133Z,101136.13
2022-10-24T18:34:19.318Z,101128.31
2022-10-24T18:36:51.461Z,101126.08
2022-10-24T18:39:26.370Z,101127.27
2022-10-24T18:42:05.585Z,101125.88
2022-10-24T18:44:38.988Z,101121.83
2022-10-24T18:47:20.700Z,101117.20
2022-10-24T18:49:57.486Z,101117.52
2022-10-24T18:52:41.513Z,101113.98
2022-10-24T18:55:21.967Z,101118.16
2022-10-24T18:57:54.854Z,101116.52
2022-10-24T19:00:29.845Z,101116.10
2022-10-24T19:03:18.530Z,101114.71
2022-10-24T19:05:56.657Z,101109.22
2022-10-24T19:08:29.786Z,101111.65
2022-10-24T19:11:02.631Z,101105.98
2022-10-24T19:13:35.464Z,101106.27
2022-10-24T19:16:12.472Z,101103.41
2022-10-24T19:18:53.057Z,101106.14
2022-10-24T19:21:26.361Z,101106.59
2022-10-24T19:23:58.540Z,101104.57
2022-10-24T19:26:31.303Z,101098.52
2022-10-24T19:29:05.766Z,101102.20
2022-10-24T19:31:38.587Z,101103.75
2022-10-24T19:34:12.145Z,101105.69
2022-10-24T19:36:44.363Z,101103.15
2022-10-24T19:39:17.017Z,101103.52
2022-10-24T19:41:49.193Z,101104.23
2022-10-24T19:44:22.148Z,101104.73
2022-10-24T19:46:54.298Z,101099.77
2022-10-24T19:49:26.470Z,101098.27
2022-10-24T19:51:59.739Z,101096.82
2022-10-24T19:54:31.911Z,101094.68
2022-10-24T19:57:04.117Z,101092.77
2022-10-24T19:59:38.531Z,101088.71
2022-10-24T20:02:11.884Z,101089.02
2022-10-24T20:04:48.095Z,101087.72
2022-10-24T20:07:22.231Z,101085.15
2022-10-24T20:09:54.519Z,101082.65
2022-10-24T20:12:26.652Z,101087.05
2022-10-24T20:14:59.109Z,101087.11
2022-10-24T20:17:31.352Z,101085.96
2022-10-24T20:20:03.578Z,101087.38
2022-10-24T20:22:35.706Z,101085.70
2022-10-24T20:25:09.165Z,101085.00
2022-10-24T20:27:41.988Z,101085.40
2022-10-24T20:30:16.027Z,101084.59
2022-10-24T20:32:48.130Z,101086.98
2022-10-24T20:35:22.311Z,101087.44
2022-10-24T20:37:54.463Z,101087.34
2022-10-24T20:40:26.796Z,101082.88
2022-10-24T20:42:59.105Z,101079.89
2022-10-24T20:45:34.204Z,101082.57
2022-10-24T20:48:09.532Z,101081.13
2022-10-24T20:50:41.752Z,101084.44
2022-10-24T20:53:13.856Z,101084.58
2022-10-24T20:55:45.988Z,101079.16
2022-10-24T20:58:18.129Z,101073.73
2022-10-24T21:00:50.285Z,101072.48
2022-10-24T21:03:22.499Z,101074.42
2022-10-24T21:05:54.625Z,101073.68
2022-10-24T21:08:26.806Z,101081.08
2022-10-24T21:10:59.333Z,101079.06
2022-10-24T21:13:31.505Z,101075.02
2022-10-24T21:16:04.196Z,101073.52
2022-10-24T21:18:36.348Z,101069.58
2022-10-24T21:21:14.249Z,101066.30
2022-10-24T21:23:50.842Z,101069.70
2022-10-24T21:26:24.017Z,101063.42
2022-10-24T21:29:08.506Z,101061.94
2022-10-24T21:31:46.993Z,101059.56
2022-10-24T21:34:19.589Z,101059.77
2022-10-24T21:36:52.018Z,101059.30
2022-10-24T21:39:24.100Z,101057.08
2022-10-24T21:41:56.269Z,101061.10
2022-10-24T21:44:28.418Z,101063.22
2022-10-24T21:47:01.033Z,101065.23
2022-10-24T21:49:34.617Z,101065.11
2022-10-24T21:52:07.072Z,101063.59
2022-10-24T21:54:39.232Z,101058.95
2022-10-24T21:57:11.393Z,101058.19
2022-10-24T21:59:43.674Z,101059.10
2022-10-24T22:02:16.052Z,101045.41
2022-10-24T22:04:52.031Z,101054.88
2022-10-24T22:10:02.709Z,101057.69
2022-10-24T22:12:35.865Z,101060.53
2022-10-24T22:15:09.629Z,101059.13
2022-10-24T22:17:41.793Z,101056.84
2022-10-24T22:20:14.516Z,101052.42
2022-10-24T22:22:46.994Z,101053.42
2022-10-24T22:25:19.335Z,101052.45
2022-10-24T22:27:51.580Z,101050.67
2022-10-24T22:30:23.735Z,101048.70
2022-10-24T22:32:56.639Z,101048.91
2022-10-24T22:35:30.343Z,101050.28
2022-10-24T22:38:03.302Z,101052.17
2022-10-24T22:40:36.874Z,101051.39
2022-10-24T22:43:10.458Z,101054.39
2022-10-24T22:45:49.124Z,101054.58
2022-10-24T22:48:27.033Z,101050.79
2022-10-24T22:51:00.065Z,101052.48
2022-10-24T22:53:34.129Z,101057.11
2022-10-24T22:56:14.625Z,101059.34
2022-10-24T22:58:48.199Z,101058.69
2022-10-24T23:01:38.343Z,101057.52
2022-10-24T23:04:24.071Z,101054.30
2022-10-24T23:07:02.825Z,101053.22
2022-10-24T23:09:34.977Z,101052.63
2022-10-24T23:12:15.427Z,101053.36
2022-10-24T23:14:49.245Z,101053.23
2022-10-24T23:17:26.625Z,101050.83
2022-10-24T23:20:00.250Z,101049.61
2022-10-24T23:22:34.314Z,101047.63
2022-10-24T23:25:07.953Z,101047.05
2022-10-24T23:27:43.402Z,101047.79
2022-10-24T23:30:19.092Z,101052.77
2022-10-24T23:32:53.204Z,101053.57
2022-10-24T23:35:26.397Z,101052.85
2022-10-24T23:37:59.330Z,101050.37
2022-10-24T23:40:36.965Z,101041.24
2022-10-24T23:43:15.021Z,101037.00
2022-10-24T23:45:57.006Z,101039.49
2022-10-24T23:48:44.244Z,101041.80
2022-10-24T23:51:20.130Z,101042.46
2022-10-24T23:53:54.778Z,101040.62
2022-10-24T23:56:28.995Z,101036.31
2022-10-24T23:59:01.095Z,101029.80
